Time;durP1;ratioP1;P1;durP2;ratioP2;P2;SDS_P1;SDS_P2;PMS_P1;PMS_P2;Temp;Humidity;BMP_temperature;BMP_pressure;BME280_temperature;BME280_humidity;BME280_pressure;Samples;Min_cycle;Max_cycle;Signal;HPM_P1;HPM_P2
2021/04/08 00:01:15;;;;;;;7.23;2.90;;;3.20;1.00;;;;;;5094534;28;20175;-69
2021/04/08 00:03:41;;;;;;;10.50;3.72;;;3.30;1.00;;;;;;5094104;28;20218;-69
2021/04/08 00:06:06;;;;;;;18.60;2.30;;;3.20;1.00;;;;;;5094199;28;20164;-68
2021/04/08 00:08:32;;;;;;;4.17;1.90;;;3.10;1.00;;;;;;5094109;28;20183;-69
2021/04/08 00:10:58;;;;;;;15.30;3.17;;;3.00;1.00;;;;;;5092879;28;20163;-68
2021/04/08 00:13:24;;;;;;;12.65;3.05;;;3.10;1.00;;;;;;5093990;28;20187;-69
2021/04/08 00:15:49;;;;;;;7.73;2.53;;;3.20;1.00;;;;;;5094019;28;20303;-68
2021/04/08 00:18:16;;;;;;;13.87;2.87;;;3.00;1.00;;;;;;5093990;28;20518;-68
2021/04/08 00:20:42;;;;;;;11.82;3.13;;;2.90;1.00;;;;;;5093959;28;20640;-68
2021/04/08 00:23:08;;;;;;;6.87;2.73;;;2.90;1.00;;;;;;5093674;28;20298;-68
2021/04/08 00:25:33;;;;;;;6.73;2.60;;;3.00;1.00;;;;;;5094008;28;20406;-68
2021/04/08 00:27:59;;;;;;;15.13;3.60;;;2.90;1.20;;;;;;5093948;28;20167;-68
2021/04/08 00:30:24;;;;;;;6.07;3.00;;;2.90;1.00;;;;;;5093683;28;20164;-68
2021/04/08 00:32:50;;;;;;;6.03;2.80;;;2.90;52.00;;;;;;5093047;28;20240;-69
2021/04/08 00:35:15;;;;;;;10.97;3.60;;;3.10;31.50;;;;;;5093671;28;20216;-68
2021/04/08 00:37:41;;;;;;;8.60;3.60;;;2.90;25.60;;;;;;5094120;28;20258;-68
2021/04/08 00:40:13;;;;;;;10.73;2.70;;;3.10;79.90;;;;;;5093574;28;20182;-68
2021/04/08 00:42:39;;;;;;;8.05;2.55;;;3.10;16.40;;;;;;5093387;28;20553;-68
2021/04/08 00:45:06;;;;;;;6.43;2.72;;;3.00;46.10;;;;;;5093744;28;20167;-69
2021/04/08 00:47:32;;;;;;;5.47;2.83;;;3.00;39.60;;;;;;5094337;28;20644;-69
2021/04/08 00:49:57;;;;;;;15.50;3.50;;;3.00;72.00;;;;;;5094449;28;20175;-69
2021/04/08 00:52:23;;;;;;;6.30;3.30;;;3.10;91.00;;;;;;5093642;28;20182;-68
2021/04/08 00:54:49;;;;;;;10.47;3.00;;;3.10;49.60;;;;;;5093389;28;20171;-68
2021/04/08 00:57:15;;;;;;;6.30;3.08;;;3.30;24.50;;;;;;5092158;28;20175;-68
2021/04/08 00:59:41;;;;;;;8.13;3.17;;;3.10;1.00;;;;;;5093259;28;20171;-67
2021/04/08 01:02:07;;;;;;;6.73;2.70;;;2.80;99.90;;;;;;5093549;28;20636;-69
2021/04/08 01:04:33;;;;;;;9.65;3.35;;;2.90;99.90;;;;;;5093726;28;20415;-68
2021/04/08 01:06:59;;;;;;;11.17;3.17;;;3.00;99.90;;;;;;5093334;28;20186;-68
2021/04/08 01:09:25;;;;;;;9.50;2.73;;;3.20;99.90;;;;;;5093233;28;20381;-68
2021/04/08 01:11:50;;;;;;;6.10;2.80;;;3.20;84.90;;;;;;5093725;28;20213;-68
2021/04/08 01:14:16;;;;;;;13.63;3.73;;;3.20;67.40;;;;;;5093104;28;20201;-68
2021/04/08 01:17:12;;;;;;;16.17;3.87;;;3.30;49.00;;;;;;5093394;28;20172;-68
2021/04/08 01:19:57;;;;;;;6.40;3.47;;;3.20;84.70;;;;;;5093721;28;20202;-68
2021/04/08 01:22:41;;;;;;;11.40;3.25;;;3.20;79.10;;;;;;5093287;28;20155;-68
2021/04/08 01:25:37;;;;;;;5.63;2.85;;;3.20;99.90;;;;;;5093105;28;20649;-68
2021/04/08 01:28:30;;;;;;;18.35;3.00;;;3.40;1.00;;;;;;5093142;28;20168;-68
2021/04/08 01:30:58;;;;;;;5.50;2.83;;;3.10;13.60;;;;;;5093339;28;20641;-68
2021/04/08 01:33:37;;;;;;;14.20;3.78;;;3.20;33.90;;;;;;5092948;28;20676;-68
2021/04/08 01:36:07;;;;;;;11.35;3.17;;;3.30;1.00;;;;;;5093141;28;20152;-69
2021/04/08 01:38:42;;;;;;;5.25;2.80;;;3.30;1.00;;;;;;5093224;28;20152;-68
2021/04/08 01:41:08;;;;;;;5.35;2.60;;;3.10;1.00;;;;;;5093194;28;20140;-68
2021/04/08 01:43:37;;;;;;;8.48;3.00;;;3.00;18.50;;;;;;5092757;28;20664;-68
2021/04/08 01:46:04;;;;;;;7.00;3.40;;;3.10;1.00;;;;;;5096838;28;20167;-68
2021/04/08 01:48:31;;;;;;;16.92;4.20;;;3.30;1.00;;;;;;5096879;28;20159;-68
2021/04/08 01:50:59;;;;;;;10.23;3.50;;;3.40;1.00;;;;;;5096826;28;20198;-68
2021/04/08 01:53:26;;;;;;;8.40;2.92;;;3.20;1.00;;;;;;5096662;28;20190;-68
2021/04/08 01:55:56;;;;;;;14.95;2.40;;;3.20;35.70;;;;;;5096728;28;20212;-68
2021/04/08 01:58:23;;;;;;;4.63;2.35;;;3.40;1.00;;;;;;5096609;28;20171;-68
2021/04/08 02:00:50;;;;;;;7.88;3.20;;;3.30;1.00;;;;;;5096598;28;20178;-68
2021/04/08 02:03:16;;;;;;;7.85;2.55;;;3.10;1.00;;;;;;5096444;28;20191;-68
2021/04/08 02:05:42;;;;;;;10.40;2.67;;;3.00;62.00;;;;;;5096758;28;20627;-68
2021/04/08 02:08:08;;;;;;;8.05;2.95;;;3.10;99.90;;;;;;5096312;28;20578;-68
2021/04/08 02:10:36;;;;;;;10.38;3.15;;;2.80;63.70;;;;;;5096366;28;20247;-68
2021/04/08 02:13:03;;;;;;;7.97;2.90;;;2.90;96.50;;;;;;5096557;28;20197;-68
2021/04/08 02:15:29;;;;;;;8.90;2.17;;;2.80;99.90;;;;;;5096320;28;20163;-68
2021/04/08 02:17:57;;;;;;;13.90;2.90;;;2.90;72.10;;;;;;5096117;28;20183;-69
2021/04/08 02:20:29;;;;;;;5.25;2.95;;;3.10;1.00;;;;;;5096092;28;20207;-68
2021/04/08 02:22:57;;;;;;;10.18;2.65;;;3.30;1.00;;;;;;5096782;28;20652;-67
2021/04/08 02:25:25;;;;;;;5.47;2.75;;;3.00;1.00;;;;;;5095832;28;20172;-68
2021/04/08 02:27:52;;;;;;;12.95;3.17;;;3.10;1.00;;;;;;5095855;28;20179;-68
2021/04/08 02:30:20;;;;;;;5.78;2.55;;;2.90;14.40;;;;;;5096481;28;20217;-69
2021/04/08 02:32:46;;;;;;;9.93;2.83;;;3.00;1.00;;;;;;5096147;28;20575;-68
2021/04/08 02:35:15;;;;;;;5.05;2.30;;;2.90;1.90;;;;;;5095917;28;20206;-68
2021/04/08 02:37:42;;;;;;;5.15;3.10;;;2.90;1.00;;;;;;5095801;28;20536;-68
2021/04/08 02:40:11;;;;;;;8.85;3.75;;;2.90;1.00;;;;;;5095774;28;20160;-70
2021/04/08 02:42:37;;;;;;;8.45;3.00;;;3.00;1.00;;;;;;5095167;28;20215;-69
2021/04/08 02:45:07;;;;;;;11.10;3.20;;;2.90;1.00;;;;;;5096334;28;20693;-69
2021/04/08 02:47:33;;;;;;;9.32;2.78;;;2.80;1.00;;;;;;5095800;28;20420;-69
2021/04/08 02:49:59;;;;;;;6.67;2.97;;;2.80;3.00;;;;;;5095897;28;20163;-69
2021/04/08 02:52:47;;;;;;;7.18;3.20;;;2.80;51.90;;;;;;5095558;28;20167;-68
2021/04/08 02:55:19;;;;;;;12.05;3.50;;;3.10;37.90;;;;;;5095023;28;20166;-69
2021/04/08 02:58:02;;;;;;;6.82;3.13;;;3.10;1.00;;;;;;5095457;28;20176;-69
2021/04/08 03:00:30;;;;;;;9.40;3.58;;;3.00;1.00;;;;;;5095357;28;20163;-69
2021/04/08 03:03:01;;;;;;;12.77;2.60;;;2.90;1.00;;;;;;5095238;28;20191;-69
2021/04/08 03:05:27;;;;;;;15.05;3.50;;;3.10;1.00;;;;;;5095686;28;20209;-69
2021/04/08 03:07:55;;;;;;;9.73;2.60;;;3.30;1.00;;;;;;5095259;28;20203;-69
2021/04/08 03:10:20;;;;;;;13.52;4.55;;;3.00;1.00;;;;;;5095528;28;20198;-69
2021/04/08 03:12:51;;;;;;;8.27;2.93;;;3.00;1.00;;;;;;5093845;28;20226;-69
2021/04/08 03:15:26;;;;;;;8.30;2.63;;;2.80;1.00;;;;;;5095157;28;20163;-68
2021/04/08 03:17:53;;;;;;;9.77;3.20;;;3.00;1.00;;;;;;5095163;28;20178;-68
2021/04/08 03:20:19;;;;;;;8.82;2.50;;;2.90;1.00;;;;;;5094918;28;20224;-68
2021/04/08 03:22:46;;;;;;;8.07;3.30;;;2.90;1.00;;;;;;5094961;28;20194;-69
2021/04/08 03:25:13;;;;;;;8.13;2.60;;;2.90;1.00;;;;;;5094892;28;20198;-69
2021/04/08 03:27:40;;;;;;;4.90;2.28;;;2.90;1.00;;;;;;5095050;28;20258;-69
2021/04/08 03:30:10;;;;;;;12.15;3.92;;;3.00;1.00;;;;;;5095015;28;20163;-69
2021/04/08 03:32:36;;;;;;;5.22;2.33;;;3.00;1.00;;;;;;5094633;28;20183;-69
2021/04/08 03:35:03;;;;;;;11.63;3.10;;;2.90;1.00;;;;;;5094570;28;20524;-69
2021/04/08 03:37:28;;;;;;;9.18;2.28;;;3.10;1.00;;;;;;5094555;28;20174;-68
2021/04/08 03:39:54;;;;;;;3.53;1.77;;;3.30;1.00;;;;;;5094690;28;20167;-68
2021/04/08 03:42:21;;;;;;;10.63;2.40;;;3.30;1.00;;;;;;5094758;28;20667;-69
2021/04/08 03:44:47;;;;;;;10.07;2.58;;;3.30;1.00;;;;;;5094689;28;20187;-69
2021/04/08 03:47:15;;;;;;;8.30;4.17;;;3.30;1.00;;;;;;5094469;28;20171;-69
2021/04/08 03:49:43;;;;;;;10.05;3.42;;;3.10;1.00;;;;;;5094431;28;20171;-69
2021/04/08 03:52:11;;;;;;;13.10;3.03;;;3.30;1.00;;;;;;5094401;28;20226;-69
2021/04/08 03:54:37;;;;;;;9.98;2.40;;;3.10;1.00;;;;;;5094570;28;20597;-69
2021/04/08 03:57:06;;;;;;;9.48;3.20;;;3.10;1.00;;;;;;5094494;28;20170;-69
2021/04/08 03:59:32;;;;;;;8.77;2.20;;;3.20;1.00;;;;;;5094466;28;20199;-69
2021/04/08 04:01:58;;;;;;;4.57;2.08;;;3.30;1.00;;;;;;5094154;28;20562;-68
2021/04/08 04:04:25;;;;;;;6.53;2.20;;;3.40;1.00;;;;;;5093932;28;20291;-68
2021/04/08 04:06:53;;;;;;;7.68;2.50;;;3.20;1.00;;;;;;5093100;28;20167;-68
2021/04/08 04:09:19;;;;;;;6.40;2.25;;;3.30;1.00;;;;;;5094035;28;20546;-69
2021/04/08 04:11:49;;;;;;;8.88;2.20;;;3.30;1.00;;;;;;5093998;28;20178;-69
2021/04/08 04:14:18;;;;;;;6.95;2.42;;;3.30;1.00;;;;;;5094466;28;20192;-68
2021/04/08 04:16:45;;;;;;;5.72;4.10;;;3.20;1.00;;;;;;5093879;28;20537;-69
2021/04/08 04:19:11;;;;;;;6.13;2.25;;;3.10;1.00;;;;;;5094124;28;20198;-69
2021/04/08 04:21:37;;;;;;;18.33;3.15;;;3.10;1.00;;;;;;5093792;28;20177;-69
2021/04/08 04:24:04;;;;;;;4.70;2.87;;;3.10;1.00;;;;;;5093883;28;20290;-69
2021/04/08 04:26:30;;;;;;;11.90;6.30;;;3.30;1.00;;;;;;5093733;28;20712;-69
2021/04/08 04:28:55;;;;;;;5.53;2.30;;;3.30;1.00;;;;;;5093822;28;20242;-68
2021/04/08 04:31:21;;;;;;;14.30;4.47;;;3.10;1.00;;;;;;5093907;28;20259;-69
2021/04/08 04:33:47;;;;;;;9.40;3.00;;;3.40;1.00;;;;;;5092346;28;20289;-68
2021/04/08 04:36:13;;;;;;;7.63;3.00;;;3.30;1.00;;;;;;5093863;28;20424;-69
2021/04/08 04:38:38;;;;;;;12.60;3.40;;;3.40;1.00;;;;;;5093614;28;20171;-69
2021/04/08 04:41:04;;;;;;;12.73;3.67;;;3.50;1.00;;;;;;5093547;28;20172;-69
2021/04/08 04:43:30;;;;;;;6.60;2.63;;;3.40;1.00;;;;;;5093147;28;20199;-69
2021/04/08 04:45:56;;;;;;;11.33;3.40;;;3.20;1.00;;;;;;5093551;28;20620;-69
2021/04/08 04:48:21;;;;;;;12.60;3.77;;;3.30;1.00;;;;;;5093325;28;20927;-69
2021/04/08 04:50:47;;;;;;;9.50;4.30;;;3.40;1.00;;;;;;5093406;28;20178;-69
2021/04/08 04:53:12;;;;;;;7.80;3.40;;;3.30;1.00;;;;;;5093296;28;20203;-69
2021/04/08 04:55:38;;;;;;;7.27;3.10;;;3.50;1.00;;;;;;5093246;28;20179;-69
2021/04/08 04:58:03;;;;;;;9.90;3.53;;;3.30;1.00;;;;;;5093129;28;20209;-69
2021/04/08 05:00:29;;;;;;;7.40;3.30;;;3.40;1.00;;;;;;5093240;28;20179;-69
2021/04/08 05:02:55;;;;;;;7.97;3.60;;;3.40;1.00;;;;;;5093037;28;20192;-69
2021/04/08 05:05:20;;;;;;;10.10;3.90;;;3.40;1.00;;;;;;5093633;28;20178;-70
2021/04/08 05:07:46;;;;;;;8.03;3.90;;;3.40;1.00;;;;;;5094722;28;20183;-70
2021/04/08 05:10:11;;;;;;;7.20;4.20;;;3.30;97.70;;;;;;5093547;28;20666;-72
2021/04/08 05:12:38;;;;;;;10.67;4.77;;;3.40;43.40;;;;;;5094176;28;20195;-70
2021/04/08 05:15:04;;;;;;;8.18;4.85;;;3.50;23.10;;;;;;5093657;28;20405;-70
2021/04/08 05:17:30;;;;;;;11.00;5.85;;;3.40;1.00;;;;;;5092952;28;20179;-70
2021/04/08 05:19:57;;;;;;;10.40;4.93;;;3.40;1.00;;;;;;5096934;28;20248;-69
2021/04/08 05:22:23;;;;;;;14.25;4.90;;;3.40;1.00;;;;;;5097427;28;20547;-70
2021/04/08 05:24:48;;;;;;;8.13;5.10;;;3.50;1.00;;;;;;5097054;28;20187;-70
2021/04/08 05:27:14;;;;;;;12.40;5.30;;;3.20;1.00;;;;;;5097412;28;20175;-69
2021/04/08 05:29:39;;;;;;;14.40;4.90;;;3.30;1.00;;;;;;5096886;28;20251;-70
2021/04/08 05:32:05;;;;;;;7.50;4.90;;;3.40;1.00;;;;;;5096142;28;20532;-70
2021/04/08 05:34:31;;;;;;;11.00;5.57;;;3.50;1.00;;;;;;5096827;28;20707;-70
2021/04/08 05:36:56;;;;;;;12.67;6.60;;;3.50;1.00;;;;;;5096901;28;20435;-70
2021/04/08 05:39:22;;;;;;;16.10;5.77;;;3.60;1.00;;;;;;5096774;28;20659;-70
2021/04/08 05:41:47;;;;;;;13.03;6.67;;;3.80;1.00;;;;;;5097065;28;20172;-69
2021/04/08 05:44:13;;;;;;;15.83;5.90;;;3.80;1.00;;;;;;5095360;28;20195;-70
2021/04/08 05:46:38;;;;;;;8.63;5.70;;;3.80;1.00;;;;;;5096691;28;20163;-69
2021/04/08 05:49:04;;;;;;;12.97;6.80;;;3.90;1.00;;;;;;5096821;28;20167;-70
2021/04/08 05:51:29;;;;;;;14.00;7.43;;;3.80;1.00;;;;;;5096723;28;20179;-70
2021/04/08 05:53:55;;;;;;;15.80;6.60;;;4.00;1.00;;;;;;5096795;28;20719;-69
2021/04/08 05:56:20;;;;;;;12.80;7.07;;;3.90;1.00;;;;;;5096701;28;20258;-70
2021/04/08 05:58:46;;;;;;;13.50;6.87;;;3.80;1.00;;;;;;5096352;28;20164;-69
2021/04/08 06:01:11;;;;;;;13.20;6.90;;;3.60;1.00;;;;;;5096582;28;20194;-70
2021/04/08 06:03:37;;;;;;;10.10;5.93;;;3.50;1.00;;;;;;5096248;28;20226;-68
2021/04/08 06:06:03;;;;;;;11.63;5.80;;;3.90;1.00;;;;;;5096589;28;20632;-69
2021/04/08 06:08:29;;;;;;;18.35;6.60;;;4.10;1.00;;;;;;5096112;28;20270;-69
2021/04/08 06:10:55;;;;;;;14.80;5.87;;;4.20;1.00;;;;;;5096310;28;20204;-70
2021/04/08 06:13:21;;;;;;;11.50;5.90;;;4.20;1.00;;;;;;5096048;28;20187;-70
2021/04/08 06:15:46;;;;;;;15.43;6.30;;;4.10;1.00;;;;;;5096187;28;20425;-69
2021/04/08 06:18:12;;;;;;;13.07;6.40;;;4.20;1.00;;;;;;5096310;28;20175;-69
2021/04/08 06:20:37;;;;;;;12.90;5.90;;;4.10;1.00;;;;;;5095903;28;20636;-70
2021/04/08 06:23:04;;;;;;;22.67;5.80;;;4.30;1.00;;;;;;5095843;28;20331;-70
2021/04/08 06:25:29;;;;;;;12.25;5.57;;;4.40;1.00;;;;;;5096061;28;20172;-69
2021/04/08 06:27:55;;;;;;;12.00;4.90;;;4.40;1.00;;;;;;5096285;28;20170;-69
2021/04/08 06:30:21;;;;;;;9.63;5.50;;;4.40;1.00;;;;;;5095099;28;20159;-70
2021/04/08 06:32:47;;;;;;;16.55;6.38;;;4.40;1.00;;;;;;5095991;28;20180;-69
2021/04/08 06:35:13;;;;;;;13.07;6.27;;;4.40;1.00;;;;;;5095591;28;20213;-70
2021/04/08 06:37:38;;;;;;;13.70;5.67;;;4.50;1.00;;;;;;5095611;28;20190;-70
2021/04/08 06:40:06;;;;;;;8.90;6.07;;;4.30;1.00;;;;;;5095379;28;20175;-69
2021/04/08 06:42:35;;;;;;;10.57;6.20;;;4.40;1.00;;;;;;5095371;28;20187;-69
2021/04/08 06:45:03;;;;;;;10.18;5.88;;;4.50;1.00;;;;;;5095409;28;20731;-69
2021/04/08 06:47:42;;;;;;;18.27;7.15;;;4.40;1.00;;;;;;5094571;28;20182;-71
2021/04/08 06:50:09;;;;;;;22.73;8.73;;;4.60;1.00;;;;;;5095838;28;20225;-69
2021/04/08 06:52:37;;;;;;;13.98;7.78;;;4.70;1.00;;;;;;5095570;28;20581;-69
2021/04/08 06:55:03;;;;;;;13.23;6.85;;;4.70;1.00;;;;;;5095474;28;20196;-69
2021/04/08 06:57:28;;;;;;;11.80;6.10;;;4.80;1.00;;;;;;5095417;28;20742;-70
2021/04/08 06:59:57;;;;;;;16.93;7.10;;;4.90;1.00;;;;;;5095869;28;20397;-70
2021/04/08 07:02:22;;;;;;;14.10;6.35;;;4.60;1.00;;;;;;5095046;28;20406;-69
2021/04/08 07:04:49;;;;;;;8.77;5.80;;;4.40;1.00;;;;;;5095370;28;20191;-70
2021/04/08 07:07:15;;;;;;;13.20;6.88;;;4.50;1.00;;;;;;5095179;28;20171;-70
2021/04/08 07:09:41;;;;;;;19.43;5.37;;;4.90;1.00;;;;;;5094900;28;20163;-70
2021/04/08 07:12:08;;;;;;;14.93;7.22;;;5.00;1.00;;;;;;5095204;28;20409;-70
2021/04/08 07:14:34;;;;;;;9.85;5.22;;;4.80;1.00;;;;;;5094834;28;20586;-70
2021/04/08 07:16:59;;;;;;;9.83;6.13;;;5.00;1.00;;;;;;5095223;28;20184;-70
2021/04/08 07:19:28;;;;;;;11.00;5.80;;;5.00;1.00;;;;;;5094967;28;20416;-69
2021/04/08 07:21:55;;;;;;;8.05;4.00;;;5.00;99.90;;;;;;5095014;28;20552;-70
2021/04/08 07:24:25;;;;;;;10.75;5.68;;;5.10;99.90;;;;;;5094538;28;20199;-69
2021/04/08 07:26:57;;;;;;;13.80;5.47;;;5.40;99.90;;;;;;5094557;28;20140;-70
2021/04/08 07:29:44;;;;;;;8.55;5.15;;;5.80;99.90;;;;;;5094565;28;20198;-70
2021/04/08 07:32:14;;;;;;;9.20;3.97;;;5.70;99.90;;;;;;5080107;28;20648;-69
2021/04/08 07:34:59;;;;;;;13.13;4.38;;;5.50;99.90;;;;;;5094744;28;20178;-68
2021/04/08 07:37:33;;;;;;;11.23;4.70;;;5.30;99.90;;;;;;5094191;28;20609;-71
2021/04/08 07:40:03;;;;;;;5.97;4.35;;;5.80;99.90;;;;;;5094582;28;20211;-69
2021/04/08 07:42:33;;;;;;;11.90;4.35;;;5.60;99.90;;;;;;5094204;28;20734;-70
2021/04/08 07:45:01;;;;;;;8.93;4.82;;;5.50;99.90;;;;;;5094696;28;20203;-70
2021/04/08 07:47:43;;;;;;;7.72;4.53;;;5.50;99.90;;;;;;5094209;28;20536;-70
2021/04/08 07:50:15;;;;;;;13.48;3.80;;;5.30;99.90;;;;;;5094135;28;20660;-70
2021/04/08 07:52:46;;;;;;;6.70;4.15;;;5.80;99.90;;;;;;5094330;28;20187;-70
2021/04/08 07:55:26;;;;;;;8.38;4.43;;;5.80;99.90;;;;;;5094054;28;20642;-69
2021/04/08 07:58:08;;;;;;;7.70;3.38;;;5.70;99.90;;;;;;5094564;28;20661;-70
2021/04/08 08:00:42;;;;;;;7.00;4.72;;;5.40;99.90;;;;;;5094607;28;20183;-70
2021/04/08 08:03:22;;;;;;;7.25;4.30;;;5.50;99.90;;;;;;5094379;28;20244;-70
2021/04/08 08:05:48;;;;;;;12.38;4.18;;;5.30;99.90;;;;;;5093973;28;20159;-70
2021/04/08 08:08:15;;;;;;;7.27;3.40;;;5.20;99.90;;;;;;5093653;28;20184;-68
2021/04/08 08:10:42;;;;;;;5.65;3.45;;;5.20;99.90;;;;;;5093734;28;20659;-70
2021/04/08 08:13:25;;;;;;;12.52;4.20;;;5.20;99.90;;;;;;5093825;28;20190;-70
2021/04/08 08:15:52;;;;;;;10.63;4.13;;;5.40;99.90;;;;;;5093775;28;20635;-70
2021/04/08 08:18:40;;;;;;;4.68;2.75;;;5.70;99.90;;;;;;5093584;28;20163;-70
2021/04/08 08:21:06;;;;;;;5.68;2.97;;;5.90;99.90;;;;;;5093795;28;20156;-69
2021/04/08 08:23:36;;;;;;;9.43;3.40;;;6.30;99.90;;;;;;5093543;28;20199;-70
2021/04/08 08:26:38;;;;;;;4.93;3.42;;;6.60;99.90;;;;;;5093543;28;20190;-70
2021/04/08 08:29:06;;;;;;;5.80;2.90;;;6.50;99.90;;;;;;5093140;28;20246;-70
2021/04/08 08:31:48;;;;;;;9.73;4.28;;;6.60;99.90;;;;;;5093113;28;20171;-70
2021/04/08 08:34:16;;;;;;;7.22;3.13;;;6.70;99.90;;;;;;5092758;28;20290;-69
2021/04/08 08:36:45;;;;;;;14.13;3.25;;;6.90;99.90;;;;;;5093113;28;20167;-70
2021/04/08 08:39:13;;;;;;;5.80;3.60;;;7.00;99.90;;;;;;5093512;28;20225;-70
2021/04/08 08:41:40;;;;;;;8.98;2.88;;;7.00;99.90;;;;;;5093415;28;20179;-71
2021/04/08 08:44:08;;;;;;;5.00;2.60;;;6.60;99.90;;;;;;5092728;28;20195;-70
2021/04/08 08:46:43;;;;;;;13.07;3.00;;;7.10;99.90;;;;;;5093579;28;20217;-71
2021/04/08 08:49:09;;;;;;;5.78;2.67;;;7.10;99.90;;;;;;5093012;28;20152;-69
2021/04/08 08:51:37;;;;;;;4.57;2.83;;;6.40;99.90;;;;;;5092902;28;20587;-70
2021/04/08 08:54:03;;;;;;;12.35;3.67;;;6.20;99.90;;;;;;5092286;28;20457;-70
2021/04/08 08:56:30;;;;;;;4.60;2.70;;;6.20;99.90;;;;;;5092745;28;20183;-68
2021/04/08 08:58:56;;;;;;;5.35;2.08;;;6.20;99.90;;;;;;5092705;28;20198;-69
2021/04/08 09:01:22;;;;;;;5.97;2.30;;;6.50;99.90;;;;;;5092672;28;20203;-70
2021/04/08 09:03:49;;;;;;;7.85;2.45;;;6.70;99.90;;;;;;5092757;28;20533;-70
2021/04/08 09:06:16;;;;;;;7.05;2.90;;;6.10;99.90;;;;;;5092873;28;20196;-70
2021/04/08 09:08:46;;;;;;;5.47;3.03;;;6.10;99.90;;;;;;5092342;28;20186;-70
2021/04/08 09:11:25;;;;;;;5.07;2.25;;;6.50;99.90;;;;;;5093203;28;20163;-69
2021/04/08 09:13:52;;;;;;;7.80;2.80;;;6.40;99.90;;;;;;5093418;28;20521;-69
2021/04/08 09:16:18;;;;;;;8.20;2.10;;;6.60;99.90;;;;;;5092688;28;20175;-69
2021/04/08 09:19:03;;;;;;;1.47;1.20;;;7.80;99.90;;;;;;5093203;28;20250;-68
2021/04/08 09:21:47;;;;;;;8.50;2.72;;;9.70;99.90;;;;;;5093175;28;20152;-69
2021/04/08 09:24:18;;;;;;;9.27;5.75;;;9.00;99.90;;;;;;5092256;28;20187;-70
2021/04/08 09:26:48;;;;;;;6.07;3.22;;;7.80;99.90;;;;;;5093941;28;20201;-71
2021/04/08 09:29:44;;;;;;;6.20;2.70;;;7.40;99.90;;;;;;5092485;28;20324;-71
2021/04/08 09:32:26;;;;;;;4.88;2.33;;;7.00;99.90;;;;;;5083254;28;20206;-69
2021/04/08 09:35:10;;;;;;;3.90;2.20;;;6.60;99.90;;;;;;5092939;28;20640;-70
2021/04/08 09:37:48;;;;;;;3.53;1.83;;;6.70;99.90;;;;;;5092770;28;20171;-70
2021/04/08 09:40:41;;;;;;;7.82;2.60;;;6.90;99.90;;;;;;5092687;28;20171;-70
2021/04/08 09:43:19;;;;;;;3.75;1.95;;;6.60;99.90;;;;;;5092723;28;20701;-69
2021/04/08 09:45:49;;;;;;;3.42;2.33;;;6.70;99.90;;;;;;5092688;28;20517;-70
2021/04/08 09:48:20;;;;;;;4.65;3.33;;;6.90;99.90;;;;;;5092686;28;20160;-70
2021/04/08 09:50:54;;;;;;;3.40;2.25;;;7.20;99.90;;;;;;5092805;28;20189;-70
2021/04/08 09:53:25;;;;;;;3.50;2.25;;;6.70;99.90;;;;;;5092581;28;20202;-69
2021/04/08 09:55:53;;;;;;;6.47;2.00;;;6.60;99.90;;;;;;5092625;28;20250;-70
2021/04/08 09:58:27;;;;;;;2.80;2.28;;;6.80;99.90;;;;;;5091383;28;20179;-69
2021/04/08 10:00:55;;;;;;;3.97;2.28;;;6.90;99.90;;;;;;5092948;28;20163;-71
2021/04/08 10:03:34;;;;;;;2.55;1.83;;;7.30;99.90;;;;;;5092326;28;20218;-69
2021/04/08 10:06:12;;;;;;;5.10;2.10;;;6.90;99.90;;;;;;5094987;28;20573;-69
2021/04/08 10:08:38;;;;;;;4.22;2.63;;;7.00;99.90;;;;;;5096158;28;20175;-69
2021/04/08 10:11:03;;;;;;;4.77;2.53;;;7.40;99.90;;;;;;5096315;28;20258;-69
2021/04/08 10:13:31;;;;;;;2.83;2.33;;;6.90;99.90;;;;;;5096009;28;20732;-69
2021/04/08 10:16:08;;;;;;;6.63;3.58;;;7.50;99.90;;;;;;5096180;28;20536;-69
2021/04/08 10:18:34;;;;;;;6.78;4.05;;;8.00;99.90;;;;;;5095916;28;20159;-70
2021/04/08 10:21:03;;;;;;;9.23;5.15;;;8.10;99.90;;;;;;5095824;28;20167;-69
2021/04/08 10:23:32;;;;;;;5.85;3.47;;;8.40;99.90;;;;;;5095734;28;20211;-69
2021/04/08 10:26:22;;;;;;;3.00;2.53;;;8.00;99.90;;;;;;5095976;28;20525;-70
2021/04/08 10:28:56;;;;;;;3.13;2.50;;;8.40;99.90;;;;;;5085608;28;20180;-71
2021/04/08 10:31:34;;;;;;;3.67;3.08;;;8.50;99.90;;;;;;5095987;28;20164;-70
2021/04/08 10:34:18;;;;;;;6.85;4.10;;;8.30;99.90;;;;;;5095569;28;20206;-70
2021/04/08 10:36:52;;;;;;;5.88;3.00;;;8.20;99.90;;;;;;5096021;28;20520;-70
2021/04/08 10:39:21;;;;;;;4.60;2.42;;;8.40;99.90;;;;;;5095432;28;20155;-70
2021/04/08 10:42:09;;;;;;;3.75;2.83;;;9.10;99.90;;;;;;5095532;28;20189;-70
2021/04/08 10:44:43;;;;;;;5.88;3.30;;;10.00;99.90;;;;;;5095311;28;20237;-70
2021/04/08 10:47:26;;;;;;;7.35;3.85;;;9.20;99.90;;;;;;5096018;28;20217;-70
2021/04/08 10:50:00;;;;;;;11.32;4.40;;;9.50;99.90;;;;;;5095367;28;20217;-70
2021/04/08 10:52:27;;;;;;;6.57;4.10;;;9.40;99.90;;;;;;5095259;28;20197;-70
2021/04/08 10:54:55;;;;;;;14.15;8.27;;;9.50;99.90;;;;;;5095337;28;20228;-70
2021/04/08 10:57:22;;;;;;;9.63;5.38;;;9.80;99.90;;;;;;5095274;28;20172;-70
2021/04/08 10:59:49;;;;;;;10.73;5.00;;;10.00;99.90;;;;;;5095236;28;20216;-70
2021/04/08 11:02:19;;;;;;;7.00;2.80;;;10.60;99.90;;;;;;5094753;28;20638;-70
2021/04/08 11:04:44;;;;;;;5.40;3.90;;;10.50;99.90;;;;;;5095702;28;20461;-70
2021/04/08 11:07:10;;;;;;;4.50;3.10;;;10.30;99.90;;;;;;5094664;28;20786;-70
2021/04/08 11:09:36;;;;;;;5.83;3.90;;;10.40;99.90;;;;;;5095484;28;20201;-70
2021/04/08 11:12:15;;;;;;;5.97;3.20;;;10.20;99.90;;;;;;5094885;28;20171;-70
2021/04/08 11:14:49;;;;;;;8.03;3.00;;;10.40;99.90;;;;;;5094713;28;20221;-70
2021/04/08 11:17:16;;;;;;;9.73;3.40;;;10.30;99.90;;;;;;5094642;28;20475;-70
2021/04/08 11:19:43;;;;;;;5.83;3.23;;;10.20;99.90;;;;;;5094824;28;20408;-70
2021/04/08 11:22:11;;;;;;;6.60;3.05;;;9.70;99.90;;;;;;5094787;28;20405;-70
2021/04/08 11:24:37;;;;;;;6.93;3.13;;;10.10;99.90;;;;;;5094629;28;20277;-69
2021/04/08 11:27:03;;;;;;;4.67;3.37;;;10.10;99.90;;;;;;5093286;28;20421;-70
2021/04/08 11:29:28;;;;;;;7.60;4.50;;;10.20;99.90;;;;;;5094556;28;20785;-69
2021/04/08 11:32:02;;;;;;;5.70;3.13;;;10.80;99.90;;;;;;5094804;28;20254;-69
2021/04/08 11:34:38;;;;;;;10.02;3.63;;;10.50;99.90;;;;;;5094551;28;20665;-70
2021/04/08 11:37:04;;;;;;;5.82;4.47;;;10.10;99.90;;;;;;5093086;28;20240;-70
2021/04/08 11:39:32;;;;;;;4.53;3.10;;;10.60;99.90;;;;;;5094576;28;20167;-69
2021/04/08 11:42:13;;;;;;;7.65;3.35;;;10.80;99.90;;;;;;5093913;28;20168;-69
2021/04/08 11:44:38;;;;;;;8.77;3.47;;;10.90;99.90;;;;;;5094233;28;20195;-69
2021/04/08 11:47:14;;;;;;;7.63;3.83;;;10.20;99.90;;;;;;5093844;28;20715;-70
2021/04/08 11:49:52;;;;;;;4.30;3.13;;;10.90;99.90;;;;;;5094006;28;20573;-69
2021/04/08 11:52:22;;;;;;;5.33;3.97;;;10.80;99.90;;;;;;5093914;28;20819;-69
2021/04/08 11:55:11;;;;;;;6.80;3.47;;;10.40;99.90;;;;;;5092785;28;20481;-69
2021/04/08 11:57:37;;;;;;;7.53;3.57;;;10.80;99.90;;;;;;5093714;28;20190;-69
2021/04/08 12:00:07;;;;;;;6.17;3.50;;;10.60;99.90;;;;;;5093723;28;20713;-70
2021/04/08 12:02:36;;;;;;;6.23;4.80;;;11.10;99.90;;;;;;5093634;28;20432;-69
2021/04/08 12:05:06;;;;;;;7.87;4.47;;;11.60;99.90;;;;;;5093699;28;20791;-70
2021/04/08 12:07:43;;;;;;;7.40;3.90;;;12.10;99.90;;;;;;5093169;28;20987;-69
2021/04/08 12:10:29;;;;;;;5.43;4.27;;;11.20;99.90;;;;;;5093795;28;20374;-69
2021/04/08 12:13:01;;;;;;;7.07;4.47;;;10.70;99.90;;;;;;5093907;28;20421;-69
2021/04/08 12:15:46;;;;;;;6.17;3.40;;;10.60;99.90;;;;;;5093468;28;20484;-69
2021/04/08 12:18:22;;;;;;;4.10;2.90;;;10.30;99.90;;;;;;5093515;28;20402;-70
2021/04/08 12:20:49;;;;;;;7.53;3.53;;;9.50;99.90;;;;;;5093400;28;20401;-70
2021/04/08 12:23:32;;;;;;;7.20;3.90;;;9.70;99.90;;;;;;5093447;28;20478;-69
2021/04/08 12:25:58;;;;;;;4.30;3.90;;;9.50;99.90;;;;;;5093336;28;20401;-70
2021/04/08 12:28:25;;;;;;;6.27;3.23;;;9.90;99.90;;;;;;5092537;28;20406;-70
2021/04/08 12:31:02;;;;;;;4.30;3.70;;;9.70;99.90;;;;;;5093100;28;20489;-70
2021/04/08 12:33:39;;;;;;;6.53;3.50;;;10.60;99.90;;;;;;5093058;28;20420;-69
2021/04/08 12:36:08;;;;;;;6.45;4.20;;;10.50;99.90;;;;;;5093306;28;20820;-69
2021/04/08 12:38:34;;;;;;;6.90;3.83;;;11.10;99.90;;;;;;5093102;28;20205;-70
2021/04/08 12:41:00;;;;;;;5.97;4.87;;;11.90;99.90;;;;;;5092946;28;20463;-69
2021/04/08 12:43:26;;;;;;;6.17;3.60;;;11.80;99.90;;;;;;5092767;28;20468;-69
2021/04/08 12:45:53;;;;;;;6.90;3.80;;;12.10;99.90;;;;;;5093399;28;20397;-69
2021/04/08 12:48:18;;;;;;;8.87;4.27;;;11.50;99.90;;;;;;5092163;28;20393;-70
2021/04/08 12:50:45;;;;;;;6.17;3.93;;;11.70;99.90;;;;;;5092886;28;20538;-70
2021/04/08 12:53:12;;;;;;;9.70;4.50;;;12.20;99.90;;;;;;5092559;28;20183;-69
2021/04/08 12:55:38;;;;;;;7.30;4.20;;;11.20;99.90;;;;;;5092533;28;20401;-70
2021/04/08 12:58:05;;;;;;;8.13;5.53;;;12.40;99.90;;;;;;5092942;28;20409;-70
2021/04/08 13:00:31;;;;;;;5.57;3.63;;;11.60;99.90;;;;;;5093099;28;20397;-70
2021/04/08 13:02:56;;;;;;;7.37;3.73;;;11.90;99.90;;;;;;5092532;28;20430;-70
2021/04/08 13:05:23;;;;;;;6.33;4.67;;;11.30;99.90;;;;;;5092221;28;20456;-70
2021/04/08 13:07:49;;;;;;;7.17;4.17;;;11.60;99.90;;;;;;5092462;28;20251;-71
2021/04/08 13:10:16;;;;;;;8.13;4.93;;;12.00;99.90;;;;;;5092428;28;20479;-70